Time;durP1;ratioP1;P1;durP2;ratioP2;P2;SDS_P1;SDS_P2;PMS_P1;PMS_P2;Temp;Humidity;BMP_temperature;BMP_pressure;BME280_temperature;BME280_humidity;BME280_pressure;Samples;Min_cycle;Max_cycle;Signal;HPM_P1;HPM_P2
2022/04/16 00:00:34;;;;;;;21.27;12.63;;;7.40;99.90;;;;;;5017168;28;20018;-85
2022/04/16 00:03:00;;;;;;;21.95;13.15;;;7.40;99.90;;;;;;5000105;28;20033;-84
2022/04/16 00:05:25;;;;;;;18.63;12.90;;;7.40;99.90;;;;;;5014545;28;20137;-85
2022/04/16 00:08:09;;;;;;;16.85;12.65;;;7.30;99.90;;;;;;5005520;28;20484;-84
2022/04/16 00:10:36;;;;;;;19.02;12.57;;;7.30;99.90;;;;;;4997773;28;20112;-84
2022/04/16 00:13:01;;;;;;;22.10;14.02;;;7.20;99.90;;;;;;5016130;28;20552;-85
2022/04/16 00:15:27;;;;;;;19.75;14.82;;;7.20;99.90;;;;;;5031188;28;20124;-84
2022/04/16 00:17:54;;;;;;;19.02;13.90;;;7.10;99.90;;;;;;5014897;28;20497;-84
2022/04/16 00:20:20;;;;;;;23.60;14.40;;;7.10;99.90;;;;;;5015648;28;20021;-84
2022/04/16 00:22:45;;;;;;;23.33;14.90;;;7.10;99.90;;;;;;5011709;28;20508;-84
2022/04/16 00:25:13;;;;;;;17.38;12.77;;;7.00;99.90;;;;;;5016798;28;20022;-84
2022/04/16 00:27:39;;;;;;;16.83;12.20;;;7.00;99.90;;;;;;5001690;28;20009;-84
2022/04/16 00:30:05;;;;;;;22.17;15.35;;;6.90;99.90;;;;;;5006163;28;20033;-84
2022/04/16 00:32:31;;;;;;;24.48;15.30;;;6.90;99.90;;;;;;5007717;28;20133;-84
2022/04/16 00:34:56;;;;;;;19.00;14.13;;;6.80;99.90;;;;;;5005406;28;20534;-85
2022/04/16 00:37:22;;;;;;;27.20;15.57;;;6.80;99.90;;;;;;5029543;28;20080;-84
2022/04/16 00:39:47;;;;;;;24.23;15.68;;;6.70;99.90;;;;;;5027379;28;20401;-84
2022/04/16 00:42:13;;;;;;;21.85;15.02;;;6.70;99.90;;;;;;5007542;28;20053;-84
2022/04/16 00:44:39;;;;;;;22.15;15.82;;;6.70;99.90;;;;;;5016155;28;20477;-83
2022/04/16 00:47:05;;;;;;;25.00;16.55;;;6.70;99.90;;;;;;5008555;28;20029;-84
2022/04/16 00:49:30;;;;;;;25.70;15.85;;;6.70;99.90;;;;;;5016576;28;20018;-84
2022/04/16 00:51:56;;;;;;;24.30;16.88;;;6.70;99.90;;;;;;5017213;28;20049;-84
2022/04/16 00:54:22;;;;;;;24.08;16.27;;;6.70;99.90;;;;;;5015727;28;20021;-84
2022/04/16 00:56:48;;;;;;;25.80;16.50;;;6.70;99.90;;;;;;5015773;28;20029;-84
2022/04/16 00:59:13;;;;;;;28.50;16.92;;;6.70;99.90;;;;;;5015645;28;20041;-84
2022/04/16 01:01:39;;;;;;;26.50;17.95;;;6.70;99.90;;;;;;5001833;28;20085;-85
2022/04/16 01:04:05;;;;;;;25.58;17.38;;;6.70;99.90;;;;;;5009325;28;20041;-84
2022/04/16 01:06:42;;;;;;;23.08;16.15;;;6.70;99.90;;;;;;5012925;28;20029;-84
2022/04/16 01:09:07;;;;;;;25.25;15.98;;;6.70;99.90;;;;;;5012688;28;20029;-83
2022/04/16 01:11:33;;;;;;;23.67;16.10;;;6.60;99.90;;;;;;5007118;28;20021;-84
2022/04/16 01:14:00;;;;;;;24.65;15.95;;;6.60;99.90;;;;;;5017313;28;20408;-84
2022/04/16 01:16:28;;;;;;;24.98;15.68;;;6.50;99.90;;;;;;4997056;28;20025;-84
2022/04/16 01:18:55;;;;;;;24.30;17.08;;;6.50;99.90;;;;;;5020478;28;20034;-84
2022/04/16 01:21:20;;;;;;;27.20;16.90;;;6.40;99.90;;;;;;5013959;28;20096;-84
2022/04/16 01:23:46;;;;;;;23.75;16.58;;;6.50;99.90;;;;;;5014372;28;20120;-84
2022/04/16 01:26:12;;;;;;;26.83;18.13;;;6.40;99.90;;;;;;5011567;28;20421;-84
2022/04/16 01:28:37;;;;;;;25.10;16.77;;;6.40;99.90;;;;;;4999625;28;20037;-84
2022/04/16 01:31:03;;;;;;;28.42;18.30;;;6.40;99.90;;;;;;5015077;28;20022;-85
2022/04/16 01:33:30;;;;;;;28.83;18.92;;;6.40;99.90;;;;;;5012195;28;20030;-84
2022/04/16 01:35:56;;;;;;;24.05;15.30;;;6.40;99.90;;;;;;5010382;28;20477;-84
2022/04/16 01:38:25;;;;;;;24.15;17.23;;;6.40;99.90;;;;;;5007591;28;20120;-84
2022/04/16 01:40:57;;;;;;;30.00;18.15;;;6.40;99.90;;;;;;5001893;28;20116;-84
2022/04/16 01:43:23;;;;;;;24.17;16.70;;;6.40;99.90;;;;;;5001101;28;20032;-84
2022/04/16 01:45:49;;;;;;;26.50;18.90;;;6.30;99.90;;;;;;5024434;28;20080;-84
2022/04/16 01:48:19;;;;;;;26.00;17.88;;;6.30;99.90;;;;;;4996212;28;20034;-84
2022/04/16 01:50:48;;;;;;;29.65;18.10;;;6.30;99.90;;;;;;5022240;28;20024;-84
2022/04/16 01:53:14;;;;;;;25.67;17.40;;;6.30;99.90;;;;;;5013750;28;20486;-84
2022/04/16 01:55:40;;;;;;;25.95;17.38;;;6.30;99.90;;;;;;5020298;28;20092;-84
2022/04/16 01:58:06;;;;;;;27.83;18.65;;;6.30;99.90;;;;;;4995461;28;20428;-84
2022/04/16 02:00:32;;;;;;;27.00;18.00;;;6.20;99.90;;;;;;5005348;28;20392;-84
2022/04/16 02:02:58;;;;;;;27.02;18.48;;;6.20;99.90;;;;;;5008588;28;20026;-84
2022/04/16 02:05:24;;;;;;;31.95;19.05;;;6.20;99.90;;;;;;5015755;28;20054;-84
2022/04/16 02:07:50;;;;;;;26.00;18.55;;;6.20;99.90;;;;;;4998107;28;20026;-84
2022/04/16 02:10:16;;;;;;;27.42;17.65;;;6.20;99.90;;;;;;5002192;28;20032;-84
2022/04/16 02:12:42;;;;;;;31.35;18.05;;;6.10;99.90;;;;;;5014802;28;20093;-84
2022/04/16 02:15:09;;;;;;;27.92;18.38;;;6.00;99.90;;;;;;5012073;28;20034;-84
2022/04/16 02:17:36;;;;;;;30.55;18.10;;;6.00;99.90;;;;;;5008202;28;20022;-84
2022/04/16 02:20:03;;;;;;;33.22;19.15;;;6.00;99.90;;;;;;5014662;28;20120;-84
2022/04/16 02:22:40;;;;;;;29.27;18.00;;;6.00;99.90;;;;;;5004279;28;20072;-84
2022/04/16 02:25:08;;;;;;;28.88;18.67;;;6.00;99.90;;;;;;5007543;28;20060;-84
2022/04/16 02:27:34;;;;;;;27.40;18.05;;;6.00;99.90;;;;;;5024815;28;20029;-84
2022/04/16 02:30:18;;;;;;;30.48;18.33;;;5.90;99.90;;;;;;5011289;28;20030;-84
2022/04/16 02:32:46;;;;;;;32.47;18.45;;;5.90;99.90;;;;;;5013207;28;20033;-84
2022/04/16 02:35:13;;;;;;;28.23;18.75;;;5.90;99.90;;;;;;5005365;28;20086;-84
2022/04/16 02:37:39;;;;;;;27.33;17.42;;;5.80;99.90;;;;;;5017061;28;20088;-84
2022/04/16 02:40:06;;;;;;;26.45;18.83;;;5.80;99.90;;;;;;5025707;28;20038;-84
2022/04/16 02:42:39;;;;;;;32.40;19.23;;;5.80;99.90;;;;;;5018717;28;20021;-84
2022/04/16 02:47:52;;;;;;;33.03;20.58;;;5.80;99.90;;;;;;5023955;28;20033;-84
2022/04/16 02:50:18;;;;;;;27.73;18.77;;;5.80;99.90;;;;;;5025304;28;20494;-84
2022/04/16 02:52:46;;;;;;;30.23;20.30;;;5.80;99.90;;;;;;5018332;28;20118;-84
2022/04/16 02:55:15;;;;;;;33.63;18.88;;;5.80;99.90;;;;;;5035554;28;20014;-84
2022/04/16 02:57:42;;;;;;;32.40;19.58;;;5.80;99.90;;;;;;5030935;28;20064;-84
2022/04/16 03:00:10;;;;;;;31.58;20.02;;;5.80;99.90;;;;;;5024677;28;20040;-85
2022/04/16 03:02:35;;;;;;;31.13;19.67;;;5.80;99.90;;;;;;5019379;28;20021;-84
2022/04/16 03:05:03;;;;;;;32.92;19.77;;;5.80;99.90;;;;;;5035585;28;20068;-84
2022/04/16 03:07:29;;;;;;;31.90;19.40;;;5.70;99.90;;;;;;5029558;28;20121;-86
2022/04/16 03:09:54;;;;;;;33.50;21.38;;;5.70;99.90;;;;;;5028277;28;20104;-85
2022/04/16 03:12:20;;;;;;;36.95;21.30;;;5.70;99.90;;;;;;5035521;28;20025;-86
2022/04/16 03:17:32;;;;;;;32.28;19.52;;;5.70;99.90;;;;;;5030841;28;20024;-86
2022/04/16 03:20:06;;;;;;;34.10;21.27;;;5.60;99.90;;;;;;5017247;28;20042;-85
2022/04/16 03:22:36;;;;;;;34.78;21.08;;;5.60;99.90;;;;;;5030630;28;20021;-85
2022/04/16 03:25:09;;;;;;;31.70;21.40;;;5.60;99.90;;;;;;5018791;28;20076;-84
2022/04/16 03:27:35;;;;;;;32.33;21.00;;;5.60;99.90;;;;;;5017973;28;20108;-84
2022/04/16 03:30:01;;;;;;;37.60;22.85;;;5.60;99.90;;;;;;5032292;28;20064;-84
2022/04/16 03:32:26;;;;;;;35.20;21.40;;;5.60;99.90;;;;;;5018095;28;20022;-84
2022/04/16 03:34:52;;;;;;;33.08;21.50;;;5.60;99.90;;;;;;5017344;28;20032;-84
2022/04/16 03:37:17;;;;;;;37.10;21.83;;;5.60;99.90;;;;;;5017493;28;20039;-84
2022/04/16 03:39:44;;;;;;;38.83;24.27;;;5.60;99.90;;;;;;5013573;28;20041;-84
2022/04/16 03:42:10;;;;;;;35.00;22.38;;;5.60;99.90;;;;;;4997513;28;20022;-84
2022/04/16 03:44:37;;;;;;;36.10;22.65;;;5.60;99.90;;;;;;5011226;28;20064;-84
2022/04/16 03:47:03;;;;;;;37.85;23.45;;;5.60;99.90;;;;;;5018012;28;20060;-84
2022/04/16 03:49:31;;;;;;;34.95;23.23;;;5.50;99.90;;;;;;5007667;28;20402;-84
2022/04/16 03:51:56;;;;;;;33.17;21.38;;;5.50;99.90;;;;;;4999483;28;20538;-84
2022/04/16 03:59:59;;;;;;;39.03;23.35;;;5.50;99.90;;;;;;5024041;28;20558;-84
2022/04/16 04:02:25;;;;;;;38.40;24.17;;;5.50;99.90;;;;;;5020262;28;20025;-84
2022/04/16 04:04:50;;;;;;;37.15;23.42;;;5.50;99.90;;;;;;5019464;28;20410;-84
2022/04/16 04:07:16;;;;;;;35.20;22.67;;;5.50;99.90;;;;;;5008424;28;20076;-84
2022/04/16 04:09:42;;;;;;;35.42;21.92;;;5.50;99.90;;;;;;5016247;28;20026;-84
2022/04/16 04:12:12;;;;;;;37.95;24.73;;;5.40;99.90;;;;;;5002025;28;20116;-84
2022/04/16 04:14:39;;;;;;;36.83;23.30;;;5.40;99.90;;;;;;5003874;28;20069;-84
2022/04/16 04:17:08;;;;;;;38.92;24.42;;;5.40;99.90;;;;;;5017189;28;20026;-84
2022/04/16 04:19:35;;;;;;;40.17;25.40;;;5.40;99.90;;;;;;5004120;28;20115;-84
2022/04/16 04:22:05;;;;;;;38.97;24.45;;;5.40;99.90;;;;;;5016891;28;20026;-84
2022/04/16 04:24:31;;;;;;;39.83;25.00;;;5.40;99.90;;;;;;5010907;28;20393;-84
2022/04/16 04:27:01;;;;;;;44.95;25.52;;;5.40;99.90;;;;;;5002334;28;20022;-84
2022/04/16 04:29:27;;;;;;;44.17;25.83;;;5.40;99.90;;;;;;4999537;28;20022;-83
2022/04/16 04:31:53;;;;;;;44.33;25.17;;;5.40;99.90;;;;;;5019121;28;20063;-84
2022/04/16 04:34:19;;;;;;;40.28;24.85;;;5.30;99.90;;;;;;5016732;28;20026;-84
2022/04/16 04:36:45;;;;;;;46.03;26.90;;;5.40;99.90;;;;;;5009560;28;20112;-84
2022/04/16 04:39:10;;;;;;;45.08;25.60;;;5.30;99.90;;;;;;5021822;28;20129;-84
2022/04/16 04:41:36;;;;;;;43.92;27.83;;;5.30;99.90;;;;;;5010575;28;20112;-84
2022/04/16 04:44:01;;;;;;;40.03;25.33;;;5.30;99.90;;;;;;4996756;28;20022;-84
2022/04/16 04:46:27;;;;;;;45.25;27.17;;;5.30;99.90;;;;;;5034017;28;20083;-84
2022/04/16 04:48:52;;;;;;;44.50;27.23;;;5.30;99.90;;;;;;5028064;28;20372;-84
2022/04/16 04:51:18;;;;;;;43.95;26.15;;;5.30;99.90;;;;;;4999863;28;20359;-85
2022/04/16 04:53:43;;;;;;;44.50;27.00;;;5.30;99.90;;;;;;5013368;28;20057;-84
2022/04/16 04:56:09;;;;;;;44.28;27.25;;;5.30;99.90;;;;;;5016592;28;20117;-85
2022/04/16 04:58:34;;;;;;;40.33;26.23;;;5.30;99.90;;;;;;5012163;28;20092;-84
2022/04/16 05:01:00;;;;;;;44.30;27.45;;;5.30;99.90;;;;;;5025197;28;20029;-85
2022/04/16 05:03:25;;;;;;;41.78;26.65;;;5.30;99.90;;;;;;5024259;28;20509;-85
2022/04/16 05:05:51;;;;;;;45.58;26.67;;;5.30;99.90;;;;;;5015854;28;20034;-86
2022/04/16 05:08:16;;;;;;;42.47;26.23;;;5.30;99.90;;;;;;5031271;28;20476;-85
2022/04/16 05:10:42;;;;;;;45.17;27.55;;;5.30;99.90;;;;;;5017873;28;20025;-85
2022/04/16 05:13:07;;;;;;;47.05;28.25;;;5.30;99.90;;;;;;5010562;28;20444;-86
2022/04/16 05:15:33;;;;;;;44.35;27.52;;;5.30;99.90;;;;;;5016081;28;20124;-86
2022/04/16 05:17:59;;;;;;;46.85;26.75;;;5.30;99.90;;;;;;5010397;28;20041;-86
2022/04/16 05:20:24;;;;;;;46.25;27.30;;;5.40;99.90;;;;;;5011120;28;20071;-86
2022/04/16 05:22:50;;;;;;;48.30;29.35;;;5.40;99.90;;;;;;5012146;28;20029;-86
2022/04/16 05:25:15;;;;;;;49.75;27.48;;;5.40;99.90;;;;;;5005014;28;20022;-84
2022/04/16 05:27:41;;;;;;;53.83;30.23;;;5.40;99.90;;;;;;5011559;28;20112;-86
2022/04/16 05:30:12;;;;;;;47.10;28.85;;;5.50;99.90;;;;;;5014865;28;20032;-85
2022/04/16 05:32:40;;;;;;;53.13;29.95;;;5.50;99.90;;;;;;5008757;28;20029;-85
2022/04/16 05:35:07;;;;;;;45.65;28.20;;;5.60;99.90;;;;;;5014829;28;20056;-85
2022/04/16 05:37:34;;;;;;;49.63;30.08;;;5.60;99.90;;;;;;5015340;28;20035;-85
2022/04/16 05:39:59;;;;;;;46.00;29.38;;;5.70;99.90;;;;;;5025005;28;20037;-86
2022/04/16 05:42:25;;;;;;;48.00;30.35;;;5.70;99.90;;;;;;5015293;28;20032;-86
2022/04/16 05:44:50;;;;;;;49.30;29.27;;;5.80;99.90;;;;;;5012747;28;20034;-86
2022/04/16 05:47:16;;;;;;;44.95;29.80;;;5.80;99.90;;;;;;5015046;28;20116;-85
2022/04/16 05:49:41;;;;;;;48.55;30.65;;;5.90;99.90;;;;;;5011744;28;20018;-86
2022/04/16 05:52:07;;;;;;;40.38;25.67;;;6.00;99.90;;;;;;5008064;28;20528;-86
2022/04/16 05:54:35;;;;;;;47.15;30.17;;;6.00;99.90;;;;;;5006449;28;20037;-86
2022/04/16 05:57:01;;;;;;;57.67;33.25;;;6.10;99.90;;;;;;4995436;28;20112;-85
2022/04/16 05:59:27;;;;;;;53.15;32.58;;;6.20;99.90;;;;;;4998339;28;20042;-86
2022/04/16 06:01:53;;;;;;;50.95;31.52;;;6.30;99.90;;;;;;4999587;28;20057;-86
2022/04/16 06:04:18;;;;;;;52.55;31.58;;;6.40;99.90;;;;;;5021733;28;20374;-86
2022/04/16 06:06:46;;;;;;;52.35;31.60;;;6.50;99.90;;;;;;5041555;28;20033;-86
2022/04/16 06:09:12;;;;;;;53.55;33.67;;;6.50;99.90;;;;;;5036848;28;20070;-86
2022/04/16 06:11:37;;;;;;;53.25;32.35;;;6.60;99.90;;;;;;5033266;28;20510;-87
2022/04/16 06:14:02;;;;;;;48.97;31.63;;;6.70;99.90;;;;;;5018889;28;20089;-87
2022/04/16 06:16:28;;;;;;;54.17;32.35;;;6.80;99.90;;;;;;5011463;28;20018;-84
2022/04/16 06:18:53;;;;;;;53.92;34.13;;;6.90;99.90;;;;;;5013419;28;20053;-85
2022/04/16 06:21:19;;;;;;;51.30;32.85;;;6.90;99.90;;;;;;5028030;28;20030;-84
2022/04/16 06:23:44;;;;;;;50.58;32.50;;;7.00;99.90;;;;;;5009359;28;20069;-85
2022/04/16 06:26:10;;;;;;;52.95;34.40;;;7.10;99.90;;;;;;5005886;28;20022;-84
2022/04/16 06:28:35;;;;;;;50.65;32.10;;;7.20;99.90;;;;;;5016154;28;20032;-85
2022/04/16 06:31:01;;;;;;;55.42;34.35;;;7.20;99.90;;;;;;5004047;28;20647;-85
2022/04/16 06:33:26;;;;;;;56.97;35.40;;;7.30;99.90;;;;;;5014520;28;20040;-85
2022/04/16 06:35:52;;;;;;;49.45;32.75;;;7.40;99.90;;;;;;5018160;28;20122;-85
2022/04/16 06:38:17;;;;;;;49.55;31.83;;;7.40;99.90;;;;;;5011726;28;20037;-85
2022/04/16 06:40:43;;;;;;;44.78;31.02;;;7.60;99.90;;;;;;5006997;28;20119;-84
2022/04/16 06:43:08;;;;;;;46.65;30.95;;;7.60;99.90;;;;;;5020782;28;20048;-85
2022/04/16 06:45:34;;;;;;;54.38;32.28;;;7.70;99.90;;;;;;5024918;28;20096;-84
2022/04/16 06:48:00;;;;;;;46.70;31.55;;;7.80;99.90;;;;;;5014117;28;20104;-85
2022/04/16 06:50:26;;;;;;;46.45;32.28;;;7.90;99.90;;;;;;5025244;28;20168;-84
2022/04/16 06:52:55;;;;;;;43.35;29.02;;;8.00;99.90;;;;;;5027008;28;20018;-85
2022/04/16 06:55:20;;;;;;;50.03;31.80;;;8.20;99.90;;;;;;5014512;28;20025;-85
2022/04/16 06:57:46;;;;;;;49.47;30.65;;;8.30;99.90;;;;;;5014450;28;20018;-85
2022/04/16 07:00:12;;;;;;;49.13;29.55;;;8.40;99.90;;;;;;5018501;28;20060;-84
2022/04/16 07:02:39;;;;;;;44.55;29.58;;;8.40;99.90;;;;;;5010232;28;20076;-85
2022/04/16 07:05:05;;;;;;;46.50;30.17;;;8.50;99.90;;;;;;5016753;28;20052;-86
2022/04/16 07:07:31;;;;;;;41.67;29.42;;;8.60;99.90;;;;;;5011786;28;20051;-85
2022/04/16 07:09:57;;;;;;;43.00;29.55;;;8.70;99.90;;;;;;5011826;28;20040;-85
2022/04/16 07:12:22;;;;;;;43.85;29.73;;;8.70;99.90;;;;;;5013119;28;20476;-85
2022/04/16 07:14:48;;;;;;;40.50;28.77;;;8.70;99.90;;;;;;5008833;28;20033;-85
2022/04/16 07:17:13;;;;;;;39.35;28.13;;;8.80;99.90;;;;;;5011820;28;20440;-85
2022/04/16 07:19:39;;;;;;;38.15;26.75;;;8.90;99.90;;;;;;5011013;28;20072;-85
2022/04/16 07:22:05;;;;;;;45.75;28.98;;;9.00;99.90;;;;;;5010581;28;20060;-86
2022/04/16 07:24:30;;;;;;;37.92;27.92;;;9.00;99.90;;;;;;5008769;28;20025;-86
2022/04/16 07:26:56;;;;;;;41.92;30.10;;;9.10;99.90;;;;;;5007892;28;20088;-86
2022/04/16 07:29:23;;;;;;;37.70;27.15;;;9.10;99.90;;;;;;5022697;28;20105;-85
2022/04/16 07:31:49;;;;;;;39.13;27.70;;;9.30;99.90;;;;;;5010579;28;20025;-86
2022/04/16 07:34:15;;;;;;;38.55;27.50;;;9.40;99.90;;;;;;5008988;28;20083;-87
2022/04/16 07:36:42;;;;;;;41.17;29.25;;;9.40;99.90;;;;;;5010304;28;20017;-86
2022/04/16 07:39:07;;;;;;;39.08;26.90;;;9.50;99.90;;;;;;5023194;28;20785;-86
2022/04/16 07:41:33;;;;;;;36.85;25.67;;;9.60;99.90;;;;;;5024330;28;20072;-85
2022/04/16 07:44:03;;;;;;;38.33;25.92;;;9.70;99.90;;;;;;5007003;28;20072;-86
2022/04/16 07:46:32;;;;;;;32.50;23.98;;;9.80;99.90;;;;;;5005247;28;20530;-85
2022/04/16 07:48:59;;;;;;;35.47;25.73;;;10.00;99.90;;;;;;5007225;28;20060;-85
2022/04/16 07:51:25;;;;;;;38.88;25.02;;;10.10;99.90;;;;;;5025974;28;20021;-84
2022/04/16 07:53:52;;;;;;;35.05;24.70;;;10.10;99.90;;;;;;5007765;28;20029;-85
2022/04/16 07:56:18;;;;;;;30.05;22.85;;;10.30;99.90;;;;;;5012322;28;20120;-85
2022/04/16 07:58:43;;;;;;;34.00;24.25;;;10.40;99.90;;;;;;5005317;28;20097;-86
2022/04/16 08:01:09;;;;;;;30.88;23.08;;;10.40;99.90;;;;;;5007588;28;20164;-86
2022/04/16 08:03:35;;;;;;;32.20;23.17;;;10.50;99.90;;;;;;5011701;28;20132;-85
2022/04/16 08:06:01;;;;;;;31.95;21.73;;;10.60;99.90;;;;;;5012275;28;20045;-84
2022/04/16 08:08:26;;;;;;;29.08;21.08;;;10.70;99.90;;;;;;5009500;28;20036;-84
2022/04/16 08:10:53;;;;;;;28.02;19.20;;;10.80;99.90;;;;;;5003489;28;20062;-86
2022/04/16 08:13:19;;;;;;;29.75;20.15;;;11.00;99.90;;;;;;5011418;28;20033;-86
2022/04/16 08:15:46;;;;;;;25.88;18.88;;;11.10;99.90;;;;;;5009095;28;20037;-85
2022/04/16 08:18:12;;;;;;;24.98;18.70;;;11.20;99.90;;;;;;5024070;28;20057;-86
2022/04/16 08:20:38;;;;;;;24.23;16.27;;;11.30;99.90;;;;;;5009444;28;20025;-85
2022/04/16 08:23:06;;;;;;;25.10;18.00;;;11.30;99.90;;;;;;5007985;28;20032;-85
2022/04/16 08:28:06;;;;;;;24.10;17.45;;;11.40;99.90;;;;;;5023071;28;20082;-85
2022/04/16 08:30:32;;;;;;;23.88;16.70;;;11.50;99.90;;;;;;5023361;28;20083;-85
2022/04/16 08:32:58;;;;;;;21.50;15.95;;;11.60;99.90;;;;;;5025361;28;20049;-85
2022/04/16 08:35:24;;;;;;;25.23;17.42;;;11.70;99.90;;;;;;5004028;28;20033;-86
2022/04/16 08:37:51;;;;;;;23.67;16.80;;;11.80;99.90;;;;;;5009452;28;20031;-85
2022/04/16 08:40:17;;;;;;;20.63;15.85;;;11.90;99.90;;;;;;5006212;28;20026;-86
2022/04/16 08:42:45;;;;;;;22.25;16.73;;;11.90;99.90;;;;;;5014264;28;20021;-85
2022/04/16 08:45:12;;;;;;;21.42;16.02;;;12.00;99.90;;;;;;5006399;28;20036;-85
2022/04/16 08:47:39;;;;;;;20.98;15.50;;;11.90;99.90;;;;;;5004164;28;20476;-85
2022/04/16 08:50:07;;;;;;;18.70;14.13;;;12.10;99.90;;;;;;5026871;28;20084;-85
2022/04/16 08:52:35;;;;;;;20.10;14.50;;;12.20;99.90;;;;;;5003718;28;20036;-86
2022/04/16 08:55:06;;;;;;;19.08;13.55;;;12.30;99.90;;;;;;5008025;28;20025;-86
2022/04/16 08:57:31;;;;;;;18.00;12.75;;;12.30;99.90;;;;;;5018152;28;20033;-87
2022/04/16 08:59:57;;;;;;;17.65;12.07;;;12.40;99.90;;;;;;5009973;28;20037;-87
2022/04/16 09:02:25;;;;;;;15.55;12.02;;;12.50;99.90;;;;;;5009974;28;20406;-87
2022/04/16 09:05:09;;;;;;;20.13;12.10;;;12.70;99.90;;;;;;5009204;28;20474;-87
2022/04/16 09:07:49;;;;;;;17.40;11.93;;;12.90;99.90;;;;;;5014455;28;20021;-86
2022/04/16 09:10:15;;;;;;;15.55;11.18;;;12.90;99.90;;;;;;5017357;28;20037;-87
2022/04/16 09:12:40;;;;;;;16.50;12.27;;;13.00;99.90;;;;;;5008803;28;20014;-86
2022/04/16 09:15:11;;;;;;;17.80;11.73;;;13.00;99.90;;;;;;5014961;28;20029;-87
2022/04/16 09:17:37;;;;;;;14.43;10.10;;;13.10;99.90;;;;;;5016270;28;20072;-87
2022/04/16 09:20:09;;;;;;;17.25;13.10;;;13.20;99.90;;;;;;5007766;28;20044;-89
2022/04/16 09:22:35;;;;;;;17.65;12.50;;;13.20;99.90;;;;;;5013988;28;20425;-86
2022/04/16 09:25:04;;;;;;;16.98;12.63;;;13.20;99.90;;;;;;5028003;28;20083;-85
2022/04/16 09:28:04;;;;;;;19.20;13.73;;;13.30;99.90;;;;;;5009004;28;20474;-85
2022/04/16 09:30:32;;;;;;;16.27;11.43;;;13.40;99.90;;;;;;4989102;28;20141;-86
2022/04/16 09:32:59;;;;;;;20.45;12.63;;;13.30;99.90;;;;;;5006317;28;20120;-86
2022/04/16 09:35:27;;;;;;;17.05;12.35;;;13.30;99.90;;;;;;5008815;28;20037;-86
2022/04/16 09:37:58;;;;;;;17.13;13.15;;;13.30;99.90;;;;;;5011418;28;20026;-85
2022/04/16 09:40:25;;;;;;;16.50;12.10;;;13.30;99.90;;;;;;5008191;28;20059;-86
2022/04/16 09:42:55;;;;;;;16.38;12.65;;;13.50;99.90;;;;;;5005400;28;20067;-86
2022/04/16 09:45:21;;;;;;;15.80;11.15;;;13.50;99.90;;;;;;5011810;28;20032;-85
2022/04/16 09:47:48;;;;;;;16.88;12.50;;;13.60;99.90;;;;;;5005692;28;20029;-85
2022/04/16 09:50:15;;;;;;;16.77;11.77;;;13.70;99.90;;;;;;5028867;28;20044;-86
2022/04/16 09:52:42;;;;;;;18.60;13.50;;;13.60;99.90;;;;;;5004043;28;20500;-85
2022/04/16 09:55:10;;;;;;;15.90;11.98;;;13.60;99.90;;;;;;4999748;28;20099;-86
2022/04/16 09:57:39;;;;;;;16.48;12.05;;;13.60;99.90;;;;;;5007529;28;20541;-86
2022/04/16 10:00:05;;;;;;;19.60;12.43;;;13.60;99.90;;;;;;5014761;28;20038;-85
2022/04/16 10:02:31;;;;;;;16.52;11.27;;;13.70;99.90;;;;;;5022385;28;20033;-83
2022/04/16 10:04:59;;;;;;;13.73;9.82;;;13.70;99.90;;;;;;5013267;28;20524;-85
2022/04/16 10:07:25;;;;;;;14.40;10.43;;;13.70;99.90;;;;;;5010206;28;20168;-86
2022/04/16 10:09:53;;;;;;;12.82;10.13;;;13.90;99.90;;;;;;5002573;28;20053;-85
2022/04/16 10:15:18;;;;;;;11.48;7.88;;;14.00;99.90;;;;;;5022077;28;20033;-86
2022/04/16 10:17:50;;;;;;;16.80;10.45;;;14.10;99.90;;;;;;5001088;28;20106;-86
2022/04/16 10:20:18;;;;;;;13.20;8.95;;;14.20;99.50;;;;;;5008106;28;20067;-86
2022/04/16 10:22:58;;;;;;;11.15;8.63;;;14.30;99.90;;;;;;5006490;28;20049;-85
2022/04/16 10:25:31;;;;;;;14.23;7.93;;;14.40;99.50;;;;;;5008853;28;20026;-85
2022/04/16 10:28:06;;;;;;;12.18;8.13;;;14.40;98.90;;;;;;5011322;28;20512;-85
2022/04/16 10:30:40;;;;;;;11.13;7.70;;;14.40;98.30;;;;;;5004447;28;20040;-86
2022/04/16 10:33:17;;;;;;;10.95;7.25;;;14.50;97.70;;;;;;5012235;28;20021;-86
2022/04/16 10:35:59;;;;;;;8.27;6.30;;;14.40;97.70;;;;;;5010492;28;20084;-85
2022/04/16 10:38:32;;;;;;;8.50;6.20;;;14.30;96.30;;;;;;5012302;28;20156;-86
2022/04/16 10:41:00;;;;;;;9.10;5.68;;;14.30;96.10;;;;;;5022280;28;20061;-86
2022/04/16 10:43:30;;;;;;;8.25;4.95;;;14.40;96.10;;;;;;5009665;28;20051;-86
2022/04/16 10:46:06;;;;;;;8.75;5.40;;;14.60;96.00;;;;;;5025319;28;20393;-86
2022/04/16 10:48:34;;;;;;;9.43;5.47;;;14.80;95.20;;;;;;5007172;28;20030;-86
2022/04/16 10:51:00;;;;;;;6.93;4.97;;;15.00;93.50;;;;;;5026216;28;20032;-86
2022/04/16 10:53:28;;;;;;;8.52;5.40;;;15.00;93.40;;;;;;5028043;28;20026;-85
2022/04/16 10:55:54;;;;;;;7.82;5.43;;;15.10;92.60;;;;;;5017939;28;20028;-88
2022/04/16 10:58:27;;;;;;;9.63;5.95;;;15.20;92.40;;;;;;5006174;28;20034;-85
2022/04/16 11:01:04;;;;;;;6.68;4.65;;;15.20;91.20;;;;;;5003581;28;20038;-86
2022/04/16 11:03:30;;;;;;;7.85;4.45;;;15.30;91.80;;;;;;5003711;28;20030;-86
2022/04/16 11:06:03;;;;;;;7.43;4.80;;;15.40;90.90;;;;;;5006923;28;20037;-87
2022/04/16 11:08:32;;;;;;;6.82;5.40;;;15.50;90.80;;;;;;5008229;28;20029;-86
2022/04/16 11:10:58;;;;;;;7.60;5.00;;;15.50;90.30;;;;;;5028027;28;20482;-84
2022/04/16 11:13:26;;;;;;;8.02;4.85;;;15.40;88.30;;;;;;5009297;28;20028;-86
2022/04/16 11:15:52;;;;;;;6.05;4.40;;;15.30;88.40;;;;;;5014769;28;20441;-86
2022/04/16 11:18:18;;;;;;;6.15;4.25;;;15.30;88.60;;;;;;5007080;28;20040;-86
2022/04/16 11:20:52;;;;;;;7.10;4.18;;;15.30;87.50;;;;;;5004924;28;20476;-86
2022/04/16 11:23:18;;;;;;;5.40;3.72;;;15.30;88.20;;;;;;5009845;28;20091;-87
2022/04/16 11:34:17;;;;;;;5.38;3.50;;;15.30;86.10;;;;;;5028806;28;20435;-87
2022/04/16 11:36:53;;;;;;;5.97;3.03;;;15.40;83.20;;;;;;5007512;28;20032;-87
2022/04/16 11:39:24;;;;;;;5.32;3.30;;;15.20;82.80;;;;;;5012202;28;20042;-86
2022/04/16 11:41:53;;;;;;;5.10;3.28;;;15.20;81.10;;;;;;5006734;28;20025;-86
2022/04/16 11:44:33;;;;;;;4.22;2.70;;;15.10;82.00;;;;;;5011367;28;20041;-86
2022/04/16 11:47:02;;;;;;;4.15;2.58;;;15.20;83.20;;;;;;5036861;28;20029;-86
2022/04/16 11:49:30;;;;;;;4.25;2.80;;;15.30;82.50;;;;;;5010545;28;20022;-86
2022/04/16 11:51:56;;;;;;;5.15;3.08;;;15.40;82.10;;;;;;5013564;28;20030;-86
2022/04/16 11:54:29;;;;;;;5.80;2.85;;;15.40;77.80;;;;;;5017722;28;20088;-86
2022/04/16 11:56:56;;;;;;;3.92;2.60;;;15.40;77.90;;;;;;5015972;28;20036;-86
2022/04/16 11:59:23;;;;;;;4.85;2.42;;;15.30;77.70;;;;;;5014413;28;20478;-86
2022/04/16 12:02:06;;;;;;;4.78;2.65;;;15.30;78.90;;;;;;5011551;28;20540;-86
2022/04/16 12:04:41;;;;;;;;;;;15.50;79.40;;;;;;5025086;28;20034;-86
2022/04/16 12:07:16;;;;;;;3.10;2.05;;;15.70;79.40;;;;;;5006401;28;19909;-85
2022/04/16 12:09:52;;;;;;;5.55;2.42;;;15.90;76.20;;;;;;5011949;28;20028;-85
2022/04/16 12:12:21;;;;;;;4.55;2.33;;;15.90;76.70;;;;;;5007854;28;20030;-86
2022/04/16 12:14:49;;;;;;;4.55;2.35;;;16.00;75.70;;;;;;5018529;28;20039;-86
2022/04/16 12:17:22;;;;;;;4.68;2.58;;;16.10;75.70;;;;;;5021173;28;20104;-86
2022/04/16 12:20:05;;;;;;;4.00;2.17;;;16.10;75.60;;;;;;5020143;28;20048;-87
2022/04/16 12:22:54;;;;;;;5.28;2.30;;;16.20;72.90;;;;;;5019424;28;20025;-86
2022/04/16 12:25:21;;;;;;;4.57;2.70;;;16.20;73.40;;;;;;5022141;28;20028;-86
2022/04/16 12:27:52;;;;;;;4.45;3.10;;;16.10;71.90;;;;;;5012693;28;20037;-85
2022/04/16 12:30:32;;;;;;;5.85;2.47;;;16.10;71.70;;;;;;5011598;28;20025;-85
2022/04/16 12:32:59;;;;;;;4.55;2.22;;;16.00;71.60;;;;;;5010785;28;20021;-86
2022/04/16 12:35:26;;;;;;;3.30;2.08;;;16.00;72.60;;;;;;5015000;28;20551;-86
2022/04/16 12:37:54;;;;;;;3.50;1.70;;;16.10;70.00;;;;;;5031492;28;20029;-86
2022/04/16 12:40:21;;;;;;;2.90;1.65;;;16.10;70.20;;;;;;5010330;28;20121;-86
2022/04/16 12:42:47;;;;;;;2.65;1.65;;;16.20;68.70;;;;;;5025274;28;20136;-86
2022/04/16 12:45:13;;;;;;;4.93;1.52;;;16.20;66.20;;;;;;5019886;28;20025;-85
2022/04/16 12:47:38;;;;;;;2.97;1.20;;;16.20;67.60;;;;;;5013798;28;20040;-87
2022/04/16 12:50:05;;;;;;;5.45;1.15;;;16.40;67.80;;;;;;5010774;28;20084;-87
2022/04/16 12:52:30;;;;;;;3.10;1.50;;;16.50;65.50;;;;;;5033397;28;20017;-86
2022/04/16 12:54:56;;;;;;;2.90;1.35;;;16.60;63.90;;;;;;5014754;28;20113;-87
2022/04/16 12:57:21;;;;;;;3.60;1.20;;;16.50;61.20;;;;;;5014963;28;20026;-87
2022/04/16 12:59:47;;;;;;;3.40;1.60;;;16.50;61.60;;;;;;5011539;28;20457;-87
2022/04/16 13:02:12;;;;;;;3.22;1.80;;;16.50;61.80;;;;;;5022692;28;20033;-87
2022/04/16 13:04:38;;;;;;;2.80;1.52;;;16.50;61.80;;;;;;5014569;28;20046;-86